Kirsten H — WY7979 — position and weather

sailwx.info

Track history (hours):
 
Tides and Currents Weather Stations Pressure Air Temp Water Temp Dewpoint Dewpoint Depression Visibility Wind Speed Wind Dir Waves Ship Positions

Kirsten H

Owner: BOYER TOWING, KETCHIKAN, AK. More information available from US FCC via Universal Licensing System and Coast Guard Vessel Documentation Center.

Last reported at 2014-Sep-22 18:24 UTC. Time now 2014-Oct-02 06:26 UTC.
Position N 47°32' W 122°20'.
Warning: this ship's position is 9 days out of date.

Length 23 m; draft 4.2 m.

Type: Tow > 200 m length. MMSI: 366623050.

Date/timePositionNaut miles runAvg speedWind from/ knotsBaromVisibWave heightAir tempDewpointWater temp
2014-Sep-22 18:24N 47°32' W 122°20'0 0.0
2014-Sep-22 17:31N 47°32' W 122°20'  
2014-Sep-17 23:32N 47°33' W 122°20'9 9.0
2014-Sep-17 22:33N 47°40' W 122°29'1010.2
2014-Sep-17 21:33N 47°50' W 122°29'8 7.0
2014-Sep-17 20:28N 47°55' W 122°38'3 1.0
2014-Sep-17 17:25N 47°52' W 122°36'4 5.2
2014-Sep-17 16:33N 47°57' W 122°38'5 4.6
2014-Sep-17 15:34N 47°55' W 122°31'6 6.5
2014-Sep-17 14:33N 47°49' W 122°28'7 6.5
2014-Sep-17 13:34N 47°42' W 122°28'7 6.7
2014-Sep-17 12:33N 47°35' W 122°28'7 6.6
2014-Sep-17 11:33N 47°29' W 122°30'4 0.8
2014-Sep-17 06:25N 47°29' W 122°24'6 6.6
2014-Sep-17 05:33N 47°35' W 122°22'3 2.6
2014-Sep-17 04:32N 47°32' W 122°20'3 2.6
2014-Sep-17 03:33N 47°35' W 122°22'1 1.3
2014-Sep-17 02:33N 47°36' W 122°23'0 0.2
2014-Sep-17 01:34N 47°36' W 122°23'5 5.3
2014-Sep-17 00:33N 47°40' W 122°28'6 5.7
2014-Sep-16 23:33N 47°46' W 122°27'6 6.0
2014-Sep-16 22:33N 47°51' W 122°29'5 5.2
2014-Sep-16 21:34N 47°56' W 122°32'6 5.6
2014-Sep-16 20:28N 48°01' W 122°38'7 5.5
2014-Sep-16 19:16N 48°07' W 122°41'12 6.7
2014-Sep-16 17:32N 48°18' W 122°48'6 6.2
2014-Sep-16 16:33N 48°24' W 122°45'6 5.8
2014-Sep-16 15:34N 48°30' W 122°45'6 5.8
2014-Sep-16 14:33N 48°35' W 122°46'6 6.1
2014-Sep-16 13:33N 48°41' W 122°44'7 7.1
2014-Sep-16 12:32N 48°47' W 122°52'7 7.4
2014-Sep-16 11:33N 48°50' W 123°01'7 7.5
2014-Sep-16 10:33N 48°54' W 123°11'8 7.6
2014-Sep-16 09:33N 48°60' W 123°19'7 7.1
2014-Sep-16 08:34N 49°05' W 123°27'7 6.7
2014-Sep-16 07:34N 49°09' W 123°34'6 6.4
2014-Sep-16 06:33N 49°14' W 123°41'6 6.1
2014-Sep-16 05:33N 49°18' W 123°48'6 6.3
2014-Sep-16 04:33N 49°22' W 123°56'6 6.3
2014-Sep-16 03:33N 49°26' W 124°03'6 6.4
2014-Sep-16 02:33N 49°30' W 124°11'6 6.3
2014-Sep-16 01:33N 49°33' W 124°19'6 6.3
2014-Sep-16 00:33N 49°36' W 124°28'6 6.2
2014-Sep-15 23:33N 49°40' W 124°35'6 6.4
2014-Sep-15 22:33N 49°44' W 124°43'6 6.5
2014-Sep-15 21:33N 49°48' W 124°51'7 6.5
2014-Sep-15 20:32N 49°52' W 124°59'6 6.2
2014-Sep-15 19:30N 49°56' W 125°07'7 5.9
2014-Sep-15 18:22N 50°01' W 125°13'6 7.4
2014-Sep-15 17:32N 50°07' W 125°18'6 5.6
2014-Sep-15 16:33N 50°11' W 125°22'3 2.9
2014-Sep-15 15:33N 50°14' W 125°23'2 2.3
2014-Sep-15 14:33N 50°12' W 125°22'4 4.3
2014-Sep-15 13:32N 50°16' W 125°24'5 4.6
2014-Sep-15 12:27N 50°21' W 125°28'26 4.1
2014-Sep-15 06:06N 50°28' W 126°07'5 5.3
2014-Sep-15 05:11N 50°29' W 126°15'6 5.9
2014-Sep-15 04:07N 50°30' W 126°25'3 6.0
2014-Sep-15 03:34N 50°30' W 126°30'6 5.8
2014-Sep-15 02:28N 50°31' W 126°39'7 6.1
2014-Sep-15 01:20N 50°37' W 126°46'5 7.1
2014-Sep-15 00:34N 50°41' W 126°51'6 6.3
2014-Sep-14 23:34N 50°45' W 126°60'7 6.7
2014-Sep-14 22:33N 50°48' W 127°08'7 6.7
2014-Sep-14 21:33N 50°52' W 127°17'7 6.7
2014-Sep-14 20:33N 50°56' W 127°26'6 6.0
2014-Sep-14 19:33N 50°59' W 127°34'6 5.7
2014-Sep-14 18:34N 51°03' W 127°40'6 5.8
2014-Sep-14 17:33N 51°07' W 127°47'5 5.4
2014-Sep-14 16:33N 51°12' W 127°51'  
Track history (hours):
 
Tides and Currents Weather Stations Pressure Air Temp Water Temp Dewpoint Dewpoint Depression Visibility Wind Speed Wind Dir Waves Ship Positions

Kirsten H

Owner: BOYER TOWING, KETCHIKAN, AK. More information available from US FCC via Universal Licensing System and Coast Guard Vessel Documentation Center.

Last reported at 2014-Sep-22 18:24 UTC. Time now 2014-Oct-02 06:26 UTC.
Position N 47°32' W 122°20'.
Warning: this ship's position is 9 days out of date.

Length 23 m; draft 4.2 m.

Type: Tow > 200 m length. MMSI: 366623050.

Date/timePositionNaut miles runAvg speedWind from/ knotsBaromVisibWave heightAir tempDewpointWater temp
2014-Sep-22 18:24N 47°32' W 122°20'0 0.0
2014-Sep-22 17:31N 47°32' W 122°20'  
2014-Sep-17 23:32N 47°33' W 122°20'9 9.0
2014-Sep-17 22:33N 47°40' W 122°29'1010.2
2014-Sep-17 21:33N 47°50' W 122°29'8 7.0
2014-Sep-17 20:28N 47°55' W 122°38'3 1.0
2014-Sep-17 17:25N 47°52' W 122°36'4 5.2
2014-Sep-17 16:33N 47°57' W 122°38'5 4.6
2014-Sep-17 15:34N 47°55' W 122°31'6 6.5
2014-Sep-17 14:33N 47°49' W 122°28'7 6.5
2014-Sep-17 13:34N 47°42' W 122°28'7 6.7
2014-Sep-17 12:33N 47°35' W 122°28'7 6.6
2014-Sep-17 11:33N 47°29' W 122°30'4 0.8
2014-Sep-17 06:25N 47°29' W 122°24'6 6.6
2014-Sep-17 05:33N 47°35' W 122°22'3 2.6
2014-Sep-17 04:32N 47°32' W 122°20'3 2.6
2014-Sep-17 03:33N 47°35' W 122°22'1 1.3
2014-Sep-17 02:33N 47°36' W 122°23'0 0.2
2014-Sep-17 01:34N 47°36' W 122°23'5 5.3
2014-Sep-17 00:33N 47°40' W 122°28'6 5.7
2014-Sep-16 23:33N 47°46' W 122°27'6 6.0
2014-Sep-16 22:33N 47°51' W 122°29'5 5.2
2014-Sep-16 21:34N 47°56' W 122°32'6 5.6
2014-Sep-16 20:28N 48°01' W 122°38'7 5.5
2014-Sep-16 19:16N 48°07' W 122°41'12 6.7
2014-Sep-16 17:32N 48°18' W 122°48'6 6.2
2014-Sep-16 16:33N 48°24' W 122°45'6 5.8
2014-Sep-16 15:34N 48°30' W 122°45'6 5.8
2014-Sep-16 14:33N 48°35' W 122°46'6 6.1
2014-Sep-16 13:33N 48°41' W 122°44'7 7.1
2014-Sep-16 12:32N 48°47' W 122°52'7 7.4
2014-Sep-16 11:33N 48°50' W 123°01'7 7.5
2014-Sep-16 10:33N 48°54' W 123°11'8 7.6
2014-Sep-16 09:33N 48°60' W 123°19'7 7.1
2014-Sep-16 08:34N 49°05' W 123°27'7 6.7
2014-Sep-16 07:34N 49°09' W 123°34'6 6.4
2014-Sep-16 06:33N 49°14' W 123°41'6 6.1
2014-Sep-16 05:33N 49°18' W 123°48'6 6.3
2014-Sep-16 04:33N 49°22' W 123°56'6 6.3
2014-Sep-16 03:33N 49°26' W 124°03'6 6.4
2014-Sep-16 02:33N 49°30' W 124°11'6 6.3
2014-Sep-16 01:33N 49°33' W 124°19'6 6.3
2014-Sep-16 00:33N 49°36' W 124°28'6 6.2
2014-Sep-15 23:33N 49°40' W 124°35'6 6.4
2014-Sep-15 22:33N 49°44' W 124°43'6 6.5
2014-Sep-15 21:33N 49°48' W 124°51'7 6.5
2014-Sep-15 20:32N 49°52' W 124°59'6 6.2
2014-Sep-15 19:30N 49°56' W 125°07'7 5.9
2014-Sep-15 18:22N 50°01' W 125°13'6 7.4
2014-Sep-15 17:32N 50°07' W 125°18'6 5.6
2014-Sep-15 16:33N 50°11' W 125°22'3 2.9
2014-Sep-15 15:33N 50°14' W 125°23'2 2.3
2014-Sep-15 14:33N 50°12' W 125°22'4 4.3
2014-Sep-15 13:32N 50°16' W 125°24'5 4.6
2014-Sep-15 12:27N 50°21' W 125°28'26 4.1
2014-Sep-15 06:06N 50°28' W 126°07'5 5.3
2014-Sep-15 05:11N 50°29' W 126°15'6 5.9
2014-Sep-15 04:07N 50°30' W 126°25'3 6.0
2014-Sep-15 03:34N 50°30' W 126°30'6 5.8
2014-Sep-15 02:28N 50°31' W 126°39'7 6.1
2014-Sep-15 01:20N 50°37' W 126°46'5 7.1
2014-Sep-15 00:34N 50°41' W 126°51'6 6.3
2014-Sep-14 23:34N 50°45' W 126°60'7 6.7
2014-Sep-14 22:33N 50°48' W 127°08'7 6.7
2014-Sep-14 21:33N 50°52' W 127°17'7 6.7
2014-Sep-14 20:33N 50°56' W 127°26'6 6.0
2014-Sep-14 19:33N 50°59' W 127°34'6 5.7
2014-Sep-14 18:34N 51°03' W 127°40'6 5.8
2014-Sep-14 17:33N 51°07' W 127°47'5 5.4
2014-Sep-14 16:33N 51°12' W 127°51'  

Dump ship's entire track history